Time;durP1;ratioP1;P1;durP2;ratioP2;P2;SDS_P1;SDS_P2;PMS_P1;PMS_P2;Temp;Humidity;BMP_temperature;BMP_pressure;BME280_temperature;BME280_humidity;BME280_pressure;Samples;Min_cycle;Max_cycle;Signal;HPM_P1;HPM_P2
2022/02/16 00:02:13;;;;;;;273.88;171.85;;;;;;;;;;5054351;28;20439;-69
2022/02/16 00:04:40;;;;;;;274.60;169.50;;;;;;;;;;5054221;28;20111;-68
2022/02/16 00:07:06;;;;;;;256.85;161.73;;;;;;;;;;5054291;28;20021;-67
2022/02/16 00:09:32;;;;;;;215.30;145.93;;;;;;;;;;5053894;28;20025;-69
2022/02/16 00:12:01;;;;;;;179.38;127.03;;;333.20;2124.80;;;;;;5053987;28;20056;-67
2022/02/16 00:14:27;;;;;;;185.07;129.95;;;333.30;2176.00;;;;;;5035766;28;20564;-68
2022/02/16 00:16:54;;;;;;;190.10;131.43;;;;;;;;;;5054122;28;20398;-66
2022/02/16 00:19:20;;;;;;;213.50;145.57;;;333.40;2150.40;;;;;;5053814;28;20028;-67
2022/02/16 00:21:46;;;;;;;211.30;143.98;;;333.50;2124.80;;;;;;5053426;28;20044;-67
2022/02/16 00:24:14;;;;;;;270.08;171.73;;;;;;;;;;5053811;28;20041;-68
2022/02/16 00:26:40;;;;;;;254.57;155.90;;;;;;;;;;5029647;28;20112;-68
2022/02/16 00:29:06;;;;;;;199.55;119.70;;;;;;;;;;5033626;28;20029;-69
2022/02/16 00:31:32;;;;;;;213.23;131.80;;;333.60;2048.00;;;;;;5033552;28;20025;-68
2022/02/16 00:33:58;;;;;;;176.43;121.10;;;;;;;;;;5041293;28;20033;-68
2022/02/16 00:36:24;;;;;;;155.60;107.10;;;333.40;2124.80;;;;;;5035608;28;20558;-68
2022/02/16 00:38:50;;;;;;;155.75;106.72;;;333.30;2124.80;;;;;;5053532;28;20115;-67
2022/02/16 00:41:15;;;;;;;144.77;100.30;;;333.20;2176.00;;;;;;5051227;28;20380;-68
2022/02/16 00:43:42;;;;;;;140.93;97.95;;;333.40;2150.40;;;;;;5033526;28;20116;-68
2022/02/16 00:46:08;;;;;;;140.40;94.30;;;333.30;2150.40;;;;;;5033414;28;20488;-69
2022/02/16 00:48:33;;;;;;;130.13;89.53;;;333.30;2150.40;;;;;;5033371;28;20040;-68
2022/02/16 00:50:59;;;;;;;126.93;87.78;;;333.20;2176.00;;;;;;5015173;28;20033;-68
2022/02/16 00:53:25;;;;;;;137.77;91.50;;;333.40;2150.40;;;;;;5033308;28;20040;-68
2022/02/16 00:55:52;;;;;;;133.75;90.25;;;333.50;2150.40;;;;;;5033391;28;20029;-67
2022/02/16 00:58:17;;;;;;;137.07;88.05;;;333.70;2124.80;;;;;;5014798;28;20037;-68
2022/02/16 01:00:43;;;;;;;132.20;84.13;;;333.40;2150.40;;;;;;5033167;28;20056;-68
2022/02/16 01:03:09;;;;;;;103.18;60.63;;;;;;;;;;5033027;28;20041;-68
2022/02/16 01:05:35;;;;;;;96.20;62.33;;;;;;;;;;5033116;28;20513;-69
2022/02/16 01:08:01;;;;;;;99.53;58.00;;;;;;;;;;5032948;28;20025;-68
2022/02/16 01:10:27;;;;;;;100.38;59.17;;;;;;;;;;5033001;28;20021;-68
2022/02/16 01:12:53;;;;;;;107.13;61.35;;;358.40;2022.40;;;;;;5033113;28;20076;-68
2022/02/16 01:15:20;;;;;;;98.57;61.15;;;;;;;;;;5033128;28;20025;-68
2022/02/16 01:17:46;;;;;;;91.63;58.10;;;;;;;;;;5032780;28;20549;-68
2022/02/16 01:20:12;;;;;;;86.00;54.08;;;;;;;;;;5033016;28;20033;-66
2022/02/16 01:22:38;;;;;;;73.45;46.80;;;;;;;;;;5032378;28;20045;-67
2022/02/16 01:25:04;;;;;;;59.42;38.38;;;;;;;;;;5033007;28;20108;-68
2022/02/16 01:27:30;;;;;;;65.65;37.90;;;;;;;;;;5032881;28;20029;-66
2022/02/16 01:29:56;;;;;;;60.47;37.28;;;;;;;;;;5032904;28;20022;-68
2022/02/16 01:32:22;;;;;;;64.20;40.92;;;;;;;;;;5032629;28;20045;-68
2022/02/16 01:34:48;;;;;;;59.63;38.33;;;;;;;;;;5032836;28;20021;-68
2022/02/16 01:37:14;;;;;;;55.90;35.40;;;;;;;;;;5032764;28;20018;-67
2022/02/16 01:39:41;;;;;;;61.63;37.80;;;;;;;;;;5032732;28;20025;-67
2022/02/16 01:42:07;;;;;;;69.18;41.45;;;;;;;;;;5032619;28;21950;-67
2022/02/16 01:44:33;;;;;;;58.25;34.40;;;;;;;;;;5032670;28;20022;-67
2022/02/16 01:47:04;;;;;;;51.35;31.58;;;;;;;;;;5032594;28;20484;-67
2022/02/16 01:49:30;;;;;;;;;;;;;;;;;;5032916;28;20506;-67
2022/02/16 01:51:56;;;;;;;66.85;36.92;;;;;;;;;;5032527;28;19905;-67
2022/02/16 01:54:22;;;;;;;45.50;29.60;;;;;;;;;;5032591;28;20492;-67
2022/02/16 01:56:49;;;;;;;61.60;32.97;;;;;;;;;;5032623;28;20029;-68
2022/02/16 01:59:19;;;;;;;50.67;31.52;;;;;;;;;;5032494;28;20101;-67
2022/02/16 02:01:45;;;;;;;45.75;28.67;;;;;;;;;;5032399;28;20044;-68
2022/02/16 02:04:12;;;;;;;71.95;41.92;;;;;;;;;;5032369;28;20475;-68
2022/02/16 02:06:38;;;;;;;42.85;30.73;;;;;;;;;;5032579;28;20029;-67
2022/02/16 02:09:04;;;;;;;40.83;32.38;;;;;;;;;;5032446;28;20113;-67
2022/02/16 02:11:30;;;;;;;29.92;21.88;;;;;;;;;;5032572;28;20029;-67
2022/02/16 02:13:57;;;;;;;38.28;26.70;;;;;;;;;;5032381;28;20030;-66
2022/02/16 02:16:23;;;;;;;41.83;26.63;;;;;;;;;;5032283;28;20116;-65
2022/02/16 02:18:49;;;;;;;50.60;32.38;;;;;;;;;;5032284;28;20028;-66
2022/02/16 02:21:15;;;;;;;33.92;22.48;;;;;;;;;;5033608;28;20124;-66
2022/02/16 02:23:41;;;;;;;30.08;18.23;;;;;;;;;;5036045;28;20037;-66
2022/02/16 02:26:08;;;;;;;22.50;16.42;;;;;;;;;;5036273;28;20383;-67
2022/02/16 02:28:34;;;;;;;18.52;12.15;;;;;;;;;;5035978;28;20027;-67
2022/02/16 02:31:00;;;;;;;21.55;15.45;;;;;;;;;;5035843;28;20057;-66
2022/02/16 02:33:26;;;;;;;31.25;14.80;;;;;;;;;;5035901;28;20104;-66
2022/02/16 02:35:53;;;;;;;17.70;11.82;;;;;;;;;;5036041;28;20096;-67
2022/02/16 02:38:19;;;;;;;23.15;15.82;;;;;;;;;;5035840;28;20487;-66
2022/02/16 02:40:52;;;;;;;26.13;19.15;;;;;;;;;;5035968;28;20045;-72
2022/02/16 02:43:20;;;;;;;19.70;15.82;;;;;;;;;;5035747;28;20041;-74
2022/02/16 02:45:46;;;;;;;24.88;17.85;;;;;;;;;;5035655;28;20419;-74
2022/02/16 02:48:12;;;;;;;35.05;24.67;;;;;;;;;;5035565;28;20026;-72
2022/02/16 02:50:38;;;;;;;37.60;25.88;;;;;;;;;;5035667;28;20025;-74
2022/02/16 02:53:04;;;;;;;42.92;29.17;;;;;;;;;;5035497;28;20037;-75
2022/02/16 02:55:30;;;;;;;46.00;30.52;;;;;;;;;;5035493;28;20488;-68
2022/02/16 02:57:56;;;;;;;48.95;33.13;;;;;;;;;;5035807;28;20444;-69
2022/02/16 03:00:22;;;;;;;54.90;34.90;;;;;;;;;;5035315;28;20021;-68
2022/02/16 03:02:48;;;;;;;54.45;35.53;;;332.90;2329.60;;;;;;5017450;28;20835;-67
2022/02/16 03:05:14;;;;;;;82.53;52.03;;;333.00;2329.60;;;;;;5035445;28;20032;-67
2022/02/16 03:07:40;;;;;;;49.03;30.10;;;308.10;2304.00;;;;;;5035324;28;20025;-67
2022/02/16 03:10:07;;;;;;;39.22;25.85;;;;;;;;;;5035388;28;20018;-67
2022/02/16 03:12:33;;;;;;;31.73;21.75;;;;;;;;;;5035224;28;20021;-67
2022/02/16 03:14:59;;;;;;;26.45;16.33;;;;;;;;;;5035212;28;20088;-65
2022/02/16 03:17:26;;;;;;;20.67;13.25;;;;;;;;;;5034971;28;20024;-66
2022/02/16 03:19:52;;;;;;;17.77;12.70;;;;;;;;;;5035236;28;20445;-66
2022/02/16 03:22:21;;;;;;;17.45;12.48;;;;;;;;;;5034492;28;20124;-67
2022/02/16 03:24:47;;;;;;;18.73;13.55;;;;;;;;;;5035045;28;20033;-66
2022/02/16 03:27:13;;;;;;;17.25;12.70;;;;;;;;;;5035029;28;20025;-67
2022/02/16 03:29:39;;;;;;;19.17;14.27;;;;;;;;;;5034943;28;20030;-67
2022/02/16 03:32:06;;;;;;;19.33;14.68;;;;;;;;;;5034280;28;20080;-68
2022/02/16 03:34:32;;;;;;;21.73;15.43;;;;;;;;;;5034856;28;20538;-68
2022/02/16 03:37:00;;;;;;;30.40;20.65;;;;;;;;;;5034849;28;20029;-67
2022/02/16 03:39:26;;;;;;;35.50;21.17;;;;;;;;;;5034844;28;20061;-67
2022/02/16 03:41:52;;;;;;;27.63;20.20;;;;;;;;;;5034681;28;20021;-70
2022/02/16 03:44:20;;;;;;;31.92;22.25;;;;;;;;;;5034782;28;20037;-67
2022/02/16 03:46:46;;;;;;;29.05;19.40;;;;;;;;;;5034437;28;20108;-67
2022/02/16 03:49:13;;;;;;;31.42;21.52;;;;;;;;;;5034643;28;20105;-67
2022/02/16 03:51:39;;;;;;;33.03;21.75;;;;;;;;;;5034213;28;20028;-68
2022/02/16 03:54:05;;;;;;;36.63;23.50;;;;;;;;;;5034450;28;20029;-67
2022/02/16 03:56:31;;;;;;;40.63;26.83;;;;;;;;;;5016498;28;20545;-67
2022/02/16 03:58:57;;;;;;;37.38;24.58;;;;;;;;;;5034457;28;20053;-67
2022/02/16 04:01:23;;;;;;;35.08;24.30;;;;;;;;;;5034147;28;20025;-67
2022/02/16 04:03:49;;;;;;;41.33;26.38;;;;;;;;;;5034183;28;20041;-67
2022/02/16 04:06:17;;;;;;;37.45;24.55;;;308.10;2304.00;;;;;;5034285;28;20025;-66
2022/02/16 04:08:43;;;;;;;33.88;23.92;;;332.80;2329.60;;;;;;5034130;28;20498;-67
2022/02/16 04:11:09;;;;;;;33.58;24.42;;;308.10;2304.00;;;;;;5034205;28;20487;-67
2022/02/16 04:13:35;;;;;;;33.70;23.65;;;308.00;2304.00;;;;;;5034198;28;20099;-67
2022/02/16 04:16:01;;;;;;;37.45;25.27;;;;;;;;;;5033953;28;20040;-67
2022/02/16 04:18:27;;;;;;;39.45;24.73;;;;;;;;;;5033903;28;20804;-67
2022/02/16 04:20:53;;;;;;;32.78;22.88;;;;;;;;;;5033762;28;20061;-67
2022/02/16 04:23:19;;;;;;;38.10;24.83;;;332.90;2329.60;;;;;;5033871;28;20578;-67
2022/02/16 04:25:45;;;;;;;34.35;23.67;;;332.80;2329.60;;;;;;5033924;28;20034;-67
2022/02/16 04:28:11;;;;;;;37.42;24.88;;;308.10;2304.00;;;;;;5033897;28;20030;-65
2022/02/16 04:30:36;;;;;;;37.53;24.38;;;308.10;2304.00;;;;;;5033853;28;20030;-65
2022/02/16 04:33:02;;;;;;;44.50;30.55;;;308.10;2304.00;;;;;;5033628;28;20464;-66
2022/02/16 04:35:28;;;;;;;42.30;29.75;;;308.10;2304.00;;;;;;5033570;28;20028;-67
2022/02/16 04:37:54;;;;;;;67.18;45.85;;;308.10;2304.00;;;;;;5033635;28;20049;-67
2022/02/16 04:40:20;;;;;;;69.13;49.33;;;308.10;2304.00;;;;;;5033712;28;20029;-67
2022/02/16 04:42:45;;;;;;;66.30;43.70;;;308.00;2304.00;;;;;;5033446;28;20388;-67
2022/02/16 04:45:11;;;;;;;48.78;32.85;;;308.00;2304.00;;;;;;5032998;28;20028;-67
2022/02/16 04:47:38;;;;;;;42.30;29.63;;;307.90;2304.00;;;;;;5033334;28;20033;-67
2022/02/16 04:50:05;;;;;;;78.32;46.95;;;307.90;2304.00;;;;;;5033391;28;20068;-67
2022/02/16 04:52:36;;;;;;;115.22;69.78;;;308.00;2304.00;;;;;;5033495;28;20511;-66
2022/02/16 04:55:06;;;;;;;56.35;37.03;;;;;;;;;;5033568;28;20495;-66
2022/02/16 04:57:32;;;;;;;78.88;42.92;;;;;;;;;;5033354;28;20115;-66
2022/02/16 04:59:59;;;;;;;37.47;25.60;;;;;;;;;;5033538;28;20025;-67
2022/02/16 05:02:26;;;;;;;31.05;21.05;;;;;;;;;;5033142;28;20120;-66
2022/02/16 05:04:52;;;;;;;27.88;20.23;;;308.10;2304.00;;;;;;5033175;28;20395;-67
2022/02/16 05:07:18;;;;;;;27.35;18.55;;;307.90;2304.00;;;;;;5033413;28;20564;-67
2022/02/16 05:09:44;;;;;;;47.05;27.83;;;308.10;2304.00;;;;;;5033492;28;20068;-67
2022/02/16 05:12:10;;;;;;;46.08;26.50;;;;;;;;;;5033299;28;20394;-67
2022/02/16 05:14:36;;;;;;;27.75;19.00;;;;;;;;;;5033534;28;20037;-66
2022/02/16 05:17:03;;;;;;;34.55;19.45;;;;;;;;;;5033123;28;20014;-66
2022/02/16 05:19:29;;;;;;;22.23;14.77;;;;;;;;;;5033483;28;20100;-66
2022/02/16 05:21:56;;;;;;;92.30;42.58;;;;;;;;;;5032838;28;20112;-65
2022/02/16 05:24:22;;;;;;;68.18;34.47;;;;;;;;;;5033389;28;20037;-66
2022/02/16 05:26:48;;;;;;;59.22;31.88;;;;;;;;;;5033167;28;20041;-67
2022/02/16 05:29:14;;;;;;;38.17;21.20;;;;;;;;;;5033078;28;20030;-67
2022/02/16 05:31:40;;;;;;;23.60;13.32;;;;;;;;;;5032975;28;20018;-67
2022/02/16 05:34:06;;;;;;;18.48;11.27;;;;;;;;;;5032923;28;20034;-67
2022/02/16 05:36:32;;;;;;;40.67;24.48;;;308.10;2304.00;;;;;;5033127;28;20464;-65
2022/02/16 05:38:58;;;;;;;42.72;25.90;;;308.10;2304.00;;;;;;5032887;28;20086;-64
2022/02/16 05:41:24;;;;;;;69.65;39.78;;;;;;;;;;5032930;28;20161;-64
2022/02/16 05:43:50;;;;;;;25.05;15.80;;;;;;;;;;5032885;28;20057;-66
2022/02/16 05:46:16;;;;;;;21.67;16.20;;;;;;;;;;5032924;28;20029;-66
2022/02/16 05:48:42;;;;;;;35.58;28.88;;;;;;;;;;5032653;28;20027;-65
2022/02/16 05:51:08;;;;;;;26.00;21.95;;;;;;;;;;5032599;28;20377;-66
2022/02/16 05:53:34;;;;;;;40.25;33.03;;;;;;;;;;5032875;28;20502;-66
2022/02/16 05:56:00;;;;;;;44.58;35.03;;;;;;;;;;5035680;28;20029;-66
2022/02/16 05:58:26;;;;;;;44.45;32.70;;;;;;;;;;5036877;28;20021;-65
2022/02/16 06:00:52;;;;;;;33.20;24.38;;;;;;;;;;5036855;28;20043;-66
2022/02/16 06:03:18;;;;;;;26.20;19.63;;;;;;;;;;5036500;28;20080;-66
2022/02/16 06:05:44;;;;;;;123.43;68.30;;;;;;;;;;5036653;28;20052;-66
2022/02/16 06:08:11;;;;;;;64.53;39.75;;;;;;;;;;5036642;28;20033;-67
2022/02/16 06:10:37;;;;;;;26.42;20.13;;;;;;;;;;5036701;28;20026;-66
2022/02/16 06:13:03;;;;;;;33.85;23.80;;;332.80;2329.60;;;;;;5036499;28;20033;-69
2022/02/16 06:15:29;;;;;;;51.38;33.30;;;332.80;2329.60;;;;;;5036335;28;20479;-67
2022/02/16 06:17:55;;;;;;;48.17;33.35;;;;;;;;;;5036272;28;20078;-68
2022/02/16 06:20:22;;;;;;;35.63;25.35;;;332.80;2329.60;;;;;;5036077;28;20392;-67
2022/02/16 06:22:48;;;;;;;54.05;39.83;;;332.80;2329.60;;;;;;5036173;28;20488;-68
2022/02/16 06:25:14;;;;;;;49.42;36.38;;;308.10;2304.00;;;;;;5036340;28;20025;-66
2022/02/16 06:27:39;;;;;;;82.05;60.50;;;308.10;2304.00;;;;;;5036192;28;20028;-67
2022/02/16 06:30:07;;;;;;;75.50;56.33;;;308.10;2304.00;;;;;;5036209;28;20108;-67
2022/02/16 06:32:34;;;;;;;76.57;56.45;;;308.10;2304.00;;;;;;5036272;28;20099;-67
2022/02/16 06:35:00;;;;;;;71.10;55.22;;;332.80;2329.60;;;;;;5035902;28;20030;-67
2022/02/16 06:37:26;;;;;;;87.35;65.90;;;332.80;2329.60;;;;;;5036287;28;20100;-66
2022/02/16 06:39:52;;;;;;;96.97;73.18;;;333.00;2329.60;;;;;;5017942;28;20026;-67
2022/02/16 06:42:17;;;;;;;86.22;65.38;;;332.90;2329.60;;;;;;5035870;28;20031;-67
2022/02/16 06:44:43;;;;;;;82.15;59.67;;;332.90;2329.60;;;;;;5036071;28;20025;-67
2022/02/16 06:47:09;;;;;;;65.07;52.17;;;332.90;2329.60;;;;;;5035976;28;20068;-68
2022/02/16 06:49:36;;;;;;;58.10;45.92;;;332.80;2329.60;;;;;;5035691;28;20025;-66
2022/02/16 06:52:02;;;;;;;58.22;44.88;;;308.10;2304.00;;;;;;5035743;28;20486;-66
2022/02/16 06:54:27;;;;;;;52.00;39.95;;;308.10;2304.00;;;;;;5036122;28;20040;-66
2022/02/16 06:56:54;;;;;;;50.78;39.10;;;;;;;;;;5035720;28;20025;-66
2022/02/16 06:59:20;;;;;;;54.90;44.88;;;;;;;;;;5035658;28;20028;-67
2022/02/16 07:01:45;;;;;;;52.67;38.78;;;308.10;2304.00;;;;;;5035685;28;20135;-66
2022/02/16 07:04:11;;;;;;;55.58;41.22;;;308.10;2304.00;;;;;;5035361;28;20116;-67
2022/02/16 07:06:37;;;;;;;68.22;43.53;;;;;;;;;;5034865;28;20025;-66
2022/02/16 07:09:03;;;;;;;51.33;37.78;;;333.00;2329.60;;;;;;5035461;28;20021;-67
2022/02/16 07:11:30;;;;;;;59.50;42.25;;;;;;;;;;5035284;28;20022;-67
2022/02/16 07:13:56;;;;;;;72.10;50.15;;;;;;;;;;5035437;28;20033;-68
2022/02/16 07:16:22;;;;;;;87.80;64.20;;;;;;;;;;5035036;28;20017;-67
2022/02/16 07:18:48;;;;;;;55.53;42.65;;;;;;;;;;5035221;28;20032;-68
2022/02/16 07:21:15;;;;;;;40.88;31.20;;;;;;;;;;5034602;28;20158;-68
2022/02/16 07:23:41;;;;;;;45.38;32.17;;;;;;;;;;5033760;28;20060;-68
2022/02/16 07:26:09;;;;;;;49.17;34.15;;;;;;;;;;5034920;28;20030;-68
2022/02/16 07:28:36;;;;;;;52.20;37.13;;;;;;;;;;5034923;28;20435;-67
2022/02/16 07:31:01;;;;;;;76.78;46.05;;;333.00;2329.60;;;;;;5034835;28;20014;-67
2022/02/16 07:33:27;;;;;;;117.03;69.50;;;;;;;;;;5033631;28;20033;-69
2022/02/16 07:35:53;;;;;;;84.90;52.90;;;;;;;;;;5034612;28;20460;-67
2022/02/16 07:38:19;;;;;;;53.03;42.15;;;;;;;;;;5034777;28;20060;-67
2022/02/16 07:40:45;;;;;;;102.03;70.22;;;;;;;;;;5034670;28;20067;-68
2022/02/16 07:43:12;;;;;;;83.43;59.13;;;;;;;;;;5034480;28;20395;-69
2022/02/16 07:45:38;;;;;;;88.57;60.80;;;;;;;;;;5034647;28;20026;-68
2022/02/16 07:48:04;;;;;;;106.75;80.07;;;;;;;;;;5034720;28;20053;-68
2022/02/16 07:50:30;;;;;;;102.65;77.93;;;;;;;;;;5016278;28;20021;-68
2022/02/16 07:53:01;;;;;;;126.20;93.93;;;;;;;;;;5034480;28;20117;-68
2022/02/16 07:55:27;;;;;;;120.25;88.38;;;;;;;;;;5034525;28;20417;-68
2022/02/16 07:57:58;;;;;;;98.88;75.15;;;;;;;;;;5034397;28;20036;-67
2022/02/16 08:00:24;;;;;;;88.53;66.47;;;;;;;;;;5034242;28;20468;-67
2022/02/16 08:02:50;;;;;;;55.50;42.25;;;;;;;;;;5034131;28;20038;-67
2022/02/16 08:05:16;;;;;;;46.50;35.40;;;333.40;2329.60;;;;;;5034070;28;20100;-68
2022/02/16 08:07:42;;;;;;;52.50;39.70;;;;;;;;;;5034161;28;20053;-68
2022/02/16 08:10:08;;;;;;;52.88;38.58;;;;;;;;;;5034089;28;20071;-70
2022/02/16 08:12:43;;;;;;;76.95;68.70;;;;;;;;;;5034074;28;20024;-69
2022/02/16 08:15:09;;;;;;;74.35;47.25;;;;;;;;;;5034107;28;20061;-70
2022/02/16 08:17:38;;;;;;;54.80;40.75;;;;;;;;;;5033809;28;20032;-70
2022/02/16 08:20:04;;;;;;;52.15;41.97;;;;;;;;;;5033846;28;20106;-68
2022/02/16 08:22:30;;;;;;;54.60;45.20;;;;;;;;;;5033588;28;20041;-69
2022/02/16 08:24:56;;;;;;;77.05;63.45;;;;;;;;;;5033877;28;20037;-68
2022/02/16 08:27:22;;;;;;;72.45;55.45;;;;;;;;;;5033787;28;20021;-67
2022/02/16 08:29:48;;;;;;;72.22;52.33;;;;;;;;;;5033754;28;20040;-67
2022/02/16 08:32:14;;;;;;;78.20;58.63;;;;;;;;;;5033661;28;20021;-67
2022/02/16 08:34:40;;;;;;;53.13;39.78;;;;;;;;;;5033832;28;20037;-67
2022/02/16 08:37:06;;;;;;;40.30;31.10;;;333.60;2329.60;;;;;;5033530;28;20022;-69
2022/02/16 08:39:32;;;;;;;44.28;35.60;;;333.60;2329.60;;;;;;5033621;28;20025;-69
2022/02/16 08:41:58;;;;;;;46.15;35.30;;;333.60;2329.60;;;;;;5033640;28;20179;-69
2022/02/16 08:44:24;;;;;;;50.85;35.30;;;358.50;2329.60;;;;;;5033452;28;20129;-70
2022/02/16 08:46:50;;;;;;;49.35;37.15;;;358.60;2329.60;;;;;;5043819;28;20048;-67
2022/02/16 08:49:17;;;;;;;62.25;43.75;;;358.50;2329.60;;;;;;5032642;28;20017;-66
2022/02/16 08:51:42;;;;;;;62.13;45.92;;;358.50;2329.60;;;;;;5040754;28;20052;-66
2022/02/16 08:54:08;;;;;;;69.72;46.55;;;358.50;2329.60;;;;;;5052007;28;20467;-67
2022/02/16 08:56:35;;;;;;;58.17;45.95;;;;;;;;;;5042649;28;20029;-67
2022/02/16 08:59:02;;;;;;;55.75;41.25;;;;;;;;;;5021132;28;20415;-64
2022/02/16 09:01:32;;;;;;;53.13;38.00;;;;;;;;;;5045407;28;20032;-69
2022/02/16 09:04:02;;;;;;;52.05;39.58;;;359.00;2329.60;;;;;;5033611;28;20468;-69
2022/02/16 09:06:28;;;;;;;52.67;41.00;;;;;;;;;;5032983;28;20022;-73
2022/02/16 09:08:56;;;;;;;49.20;36.70;;;;;;;;;;5039898;28;20450;-73
2022/02/16 09:11:22;;;;;;;45.30;34.42;;;384.10;2329.60;;;;;;5034671;28;20025;-74
2022/02/16 09:13:49;;;;;;;62.75;39.25;;;384.20;2329.60;;;;;;5033448;28;20030;-75
2022/02/16 09:16:14;;;;;;;36.28;28.17;;;359.20;2329.60;;;;;;5033043;28;20029;-76
2022/02/16 09:18:40;;;;;;;19.85;14.75;;;;;;;;;;5032891;28;20032;-73
2022/02/16 09:21:07;;;;;;;17.08;13.25;;;;;;;;;;5032635;28;20495;-73
2022/02/16 09:23:33;;;;;;;20.58;17.00;;;;;;;;;;5035908;28;20032;-73
2022/02/16 09:26:01;;;;;;;27.25;17.45;;;;;;;;;;5051500;28;20021;-75
2022/02/16 09:28:28;;;;;;;24.38;17.75;;;;;;;;;;5070500;28;20173;-73
2022/02/16 09:30:54;;;;;;;23.48;17.30;;;;;;;;;;5071561;28;20103;-79
2022/02/16 09:33:21;;;;;;;29.33;20.60;;;;;;;;;;5058743;28;20029;-75
2022/02/16 09:35:47;;;;;;;24.60;17.27;;;;;;;;;;5048569;28;20021;-77
2022/02/16 09:38:13;;;;;;;38.47;24.75;;;;;;;;;;5041401;28;20021;-73
2022/02/16 09:40:40;;;;;;;34.50;23.13;;;384.00;2329.60;;;;;;5032130;28;20022;-77
2022/02/16 09:43:06;;;;;;;41.10;26.05;;;359.30;2329.60;;;;;;5032017;28;20029;-78
2022/02/16 09:45:31;;;;;;;20.40;15.32;;;359.30;2329.60;;;;;;5032176;28;20032;-80
2022/02/16 09:47:58;;;;;;;15.13;11.57;;;359.30;2329.60;;;;;;5049324;28;20135;-78
2022/02/16 09:50:24;;;;;;;10.70;7.80;;;;;;;;;;5051411;28;20033;-78
2022/02/16 09:52:51;;;;;;;17.60;11.15;;;;;;;;;;5051621;28;20028;-78
2022/02/16 09:55:17;;;;;;;18.27;13.60;;;;;;;;;;5035759;28;20022;-78
2022/02/16 09:57:43;;;;;;;12.77;9.88;;;;;;;;;;5039808;28;20025;-77
2022/02/16 10:00:12;;;;;;;27.33;18.40;;;;;;;;;;5031729;28;20053;-77
2022/02/16 10:02:39;;;;;;;24.15;16.02;;;;;;;;;;5032838;28;20037;-78
2022/02/16 10:05:06;;;;;;;32.22;18.73;;;;;;;;;;5051867;28;20017;-74
2022/02/16 10:07:35;;;;;;;25.83;17.58;;;;;;;;;;5051452;28;20029;-76
2022/02/16 10:10:16;;;;;;;19.38;14.50;;;;;;;;;;5051795;28;20060;-73
2022/02/16 10:12:44;;;;;;;24.42;18.15;;;;;;;;;;5051676;28;20056;-74
2022/02/16 10:15:12;;;;;;;44.05;27.30;;;;;;;;;;5051732;28;20029;-74
2022/02/16 10:17:38;;;;;;;26.95;20.45;;;;;;;;;;5052079;28;20083;-75
2022/02/16 10:20:06;;;;;;;31.08;23.38;;;;;;;;;;5052198;28;20021;-75
2022/02/16 10:22:39;;;;;;;37.13;26.40;;;;;;;;;;5051351;28;20124;-74
2022/02/16 10:25:27;;;;;;;23.02;20.27;;;;;;;;;;5066864;28;20032;-76
2022/02/16 10:28:10;;;;;;;27.50;20.58;;;;;;;;;;5039484;28;20049;-68
2022/02/16 10:30:38;;;;;;;24.95;20.00;;;;;;;;;;5013896;28;20133;-72
2022/02/16 10:33:17;;;;;;;26.65;18.13;;;;;;;;;;5031289;28;20024;-75
2022/02/16 10:35:45;;;;;;;41.60;24.75;;;;;;;;;;5031728;28;20079;-70
2022/02/16 10:38:11;;;;;;;26.50;21.65;;;;;;;;;;5031498;28;20091;-72
2022/02/16 10:40:37;;;;;;;23.98;18.42;;;;;;;;;;5031615;28;20036;-72
2022/02/16 10:43:03;;;;;;;16.40;14.15;;;;;;;;;;5054074;28;20067;-72
2022/02/16 10:45:30;;;;;;;18.85;14.60;;;;;;;;;;5055259;28;20053;-72
2022/02/16 10:48:07;;;;;;;19.33;14.80;;;;;;;;;;5055230;28;20096;-72
2022/02/16 10:50:39;;;;;;;25.33;17.98;;;;;;;;;;5059065;28;20075;-69
2022/02/16 10:53:07;;;;;;;53.00;31.45;;;;;;;;;;5054548;28;20021;-70
2022/02/16 10:55:46;;;;;;;27.58;20.00;;;;;;;;;;5076860;28;20039;-72
2022/02/16 10:58:30;;;;;;;16.75;14.07;;;;;;;;;;5074692;28;20111;-70
2022/02/16 11:00:57;;;;;;;14.90;12.43;;;;;;;;;;5074617;28;20021;-71
2022/02/16 11:03:25;;;;;;;18.10;14.80;;;;;;;;;;5056578;28;20036;-70
2022/02/16 11:05:53;;;;;;;20.13;15.00;;;461.00;2380.80;;;;;;5074853;28;20093;-70
2022/02/16 11:08:20;;;;;;;19.77;16.13;;;;;;;;;;5074405;28;20024;-71
2022/02/16 11:10:47;;;;;;;18.25;15.95;;;;;;;;;;5074552;28;20032;-72
2022/02/16 11:13:18;;;;;;;14.43;12.82;;;;;;;;;;5074319;28;20020;-73
2022/02/16 11:15:46;;;;;;;15.55;12.38;;;461.40;2380.80;;;;;;5074675;28;20386;-71
2022/02/16 11:18:19;;;;;;;18.83;13.52;;;461.40;2380.80;;;;;;5074056;28;20028;-73
2022/02/16 11:20:45;;;;;;;17.38;13.32;;;;;;;;;;5074286;28;20031;-70
2022/02/16 11:23:14;;;;;;;70.95;47.75;;;;;;;;;;5074044;28;20076;-72
2022/02/16 11:25:42;;;;;;;29.33;24.38;;;461.30;2380.80;;;;;;5074238;28;20017;-72
2022/02/16 11:28:12;;;;;;;27.77;19.58;;;;;;;;;;5074051;28;20041;-71
2022/02/16 11:30:46;;;;;;;17.00;14.05;;;;;;;;;;5074329;28;20095;-72
2022/02/16 11:33:12;;;;;;;23.42;18.20;;;;;;;;;;5074489;28;20032;-70
2022/02/16 11:35:58;;;;;;;16.15;13.23;;;;;;;;;;5074446;28;20048;-72
2022/02/16 11:38:37;;;;;;;15.48;11.85;;;;;;;;;;5074062;28;20394;-71
2022/02/16 11:41:18;;;;;;;18.20;13.10;;;;;;;;;;5074315;28;20024;-72
2022/02/16 11:43:55;;;;;;;16.07;12.43;;;;;;;;;;5056145;28;20036;-72
2022/02/16 11:46:40;;;;;;;23.00;18.70;;;;;;;;;;5051756;28;20266;-72
2022/02/16 11:49:06;;;;;;;23.88;17.60;;;;;;;;;;5051248;28;20029;-69
2022/02/16 11:51:34;;;;;;;20.10;15.68;;;;;;;;;;5053944;28;20048;-73
2022/02/16 11:54:26;;;;;;;38.97;27.17;;;;;;;;;;5059253;28;20029;-73
2022/02/16 11:56:53;;;;;;;39.78;28.58;;;;;;;;;;5042828;28;20083;-71
2022/02/16 11:59:24;;;;;;;24.58;18.35;;;;;;;;;;5073707;28;20516;-71
2022/02/16 12:02:05;;;;;;;47.57;30.80;;;;;;;;;;5073684;28;20021;-70
2022/02/16 12:04:31;;;;;;;24.40;21.77;;;;;;;;;;5075317;28;20045;-71
2022/02/16 12:07:16;;;;;;;25.77;19.55;;;;;;;;;;5074218;28;20056;-72
2022/02/16 12:09:42;;;;;;;20.65;14.65;;;;;;;;;;5073930;28;20043;-71
2022/02/16 12:12:12;;;;;;;20.67;15.65;;;;;;;;;;5074062;28;20029;-71
2022/02/16 12:14:38;;;;;;;45.22;26.52;;;;;;;;;;5073949;28;20067;-72
2022/02/16 12:17:04;;;;;;;56.63;34.17;;;;;;;;;;5047280;28;20028;-71
2022/02/16 12:19:31;;;;;;;39.22;21.88;;;;;;;;;;5034094;28;20025;-69
2022/02/16 12:21:58;;;;;;;32.22;23.27;;;;;;;;;;5019564;28;20491;-72
2022/02/16 12:24:26;;;;;;;22.08;16.20;;;;;;;;;;5022325;28;20033;-71
2022/02/16 12:26:59;;;;;;;20.02;15.63;;;;;;;;;;5045907;28;20017;-72
2022/02/16 12:29:27;;;;;;;30.77;21.52;;;;;;;;;;5053780;28;20025;-72
2022/02/16 12:32:08;;;;;;;27.73;20.02;;;;;;;;;;5056375;28;20068;-72
2022/02/16 12:34:34;;;;;;;40.65;26.13;;;;;;;;;;5050129;28;20064;-71
2022/02/16 12:37:00;;;;;;;40.70;21.63;;;;;;;;;;5040313;28;20106;-71
2022/02/16 12:39:28;;;;;;;38.35;23.65;;;;;;;;;;5053365;28;20025;-72
2022/02/16 12:41:54;;;;;;;45.80;23.17;;;;;;;;;;5053731;28;20378;-71
2022/02/16 12:44:21;;;;;;;30.92;22.05;;;;;;;;;;5034254;28;20040;-71
2022/02/16 12:46:51;;;;;;;43.67;16.88;;;;;;;;;;5033826;28;20104;-71
2022/02/16 12:49:20;;;;;;;36.25;23.83;;;;;;;;;;5042364;28;20026;-71
2022/02/16 12:51:47;;;;;;;34.65;20.60;;;;;;;;;;5033251;28;20028;-73
2022/02/16 12:54:14;;;;;;;38.35;23.48;;;;;;;;;;5047953;28;20530;-71
2022/02/16 12:56:41;;;;;;;44.40;27.40;;;;;;;;;;5053360;28;20028;-72
2022/02/16 12:59:31;;;;;;;43.60;23.63;;;;;;;;;;5041365;28;20108;-71
2022/02/16 13:01:57;;;;;;;49.58;27.20;;;;;;;;;;5025432;28;20041;-71
2022/02/16 13:04:29;;;;;;;36.40;21.83;;;;;;;;;;5032799;28;20038;-71
2022/02/16 13:06:57;;;;;;;34.08;18.33;;;;;;;;;;5033512;28;20559;-72
2022/02/16 13:09:24;;;;;;;30.27;18.20;;;;;;;;;;5033169;28;20060;-73
2022/02/16 13:11:54;;;;;;;88.43;46.42;;;;;;;;;;5033201;28;20022;-72
2022/02/16 13:14:22;;;;;;;75.68;40.38;;;;;;;;;;5033382;28;20099;-72
2022/02/16 13:17:08;;;;;;;58.65;34.08;;;;;;;;;;5033514;28;20037;-76
2022/02/16 13:19:45;;;;;;;60.38;34.72;;;;;;;;;;5036489;28;20029;-73
2022/02/16 13:22:12;;;;;;;39.20;23.75;;;;;;;;;;5032987;28;20041;-73
2022/02/16 13:24:54;;;;;;;36.40;23.35;;;;;;;;;;5037273;28;20056;-75
2022/02/16 13:27:20;;;;;;;31.13;19.15;;;;;;;;;;5049845;28;20493;-76
2022/02/16 13:29:58;;;;;;;28.25;15.35;;;;;;;;;;5033228;28;20022;-77
2022/02/16 13:32:28;;;;;;;24.98;15.23;;;;;;;;;;5033297;28;20036;-78
2022/02/16 13:34:54;;;;;;;46.58;21.13;;;;;;;;;;5032845;28;20080;-77
2022/02/16 13:37:20;;;;;;;58.33;30.08;;;;;;;;;;5032852;28;20030;-77
2022/02/16 13:40:01;;;;;;;69.45;36.95;;;;;;;;;;5033269;28;20095;-78